createdAt,value
2019-04-26T00:00:10.187Z,98903.43
2019-04-26T00:02:49.372Z,98899.48
2019-04-26T00:05:18.509Z,98911.70
2019-04-26T00:07:47.147Z,98909.53
2019-04-26T00:10:26.525Z,98909.11
2019-04-26T00:13:05.907Z,98899.48
2019-04-26T00:15:36.205Z,98905.64
2019-04-26T00:18:05.506Z,98918.79
2019-04-26T00:20:33.893Z,98917.93
2019-04-26T00:23:02.306Z,98924.08
2019-04-26T00:25:30.702Z,98932.39
2019-04-26T00:27:59.114Z,98933.71
2019-04-26T00:30:27.549Z,98935.91
2019-04-26T00:32:55.946Z,98938.97
2019-04-26T00:35:24.337Z,98944.66
2019-04-26T00:37:52.821Z,98956.50
2019-04-26T00:40:22.363Z,98960.44
2019-04-26T00:42:51.823Z,98963.09
2019-04-26T00:45:21.268Z,98959.15
2019-04-26T00:47:51.215Z,98959.14
2019-04-26T00:50:21.229Z,98946.88
2019-04-26T00:52:51.126Z,98939.85
2019-04-26T00:55:21.908Z,98944.66
2019-04-26T00:57:51.404Z,98945.09
2019-04-26T01:00:21.514Z,98954.30
2019-04-26T01:02:54.432Z,98960.89
2019-04-26T01:05:23.121Z,98958.71
2019-04-26T01:07:53.253Z,98945.11
2019-04-26T01:10:21.772Z,98943.34
2019-04-26T01:12:50.199Z,98949.92
2019-04-26T01:15:19.941Z,98952.09
2019-04-26T01:17:48.763Z,98948.61
2019-04-26T01:20:18.929Z,98951.23
2019-04-26T01:22:50.421Z,98945.09
2019-04-26T01:25:33.147Z,98949.95
2019-04-26T01:28:02.684Z,98939.43
2019-04-26T01:30:32.858Z,98933.28
2019-04-26T01:33:02.905Z,98911.81
2019-04-26T01:35:31.771Z,98915.77
2019-04-26T01:38:03.455Z,98905.21
2019-04-26T01:40:33.645Z,98898.64
2019-04-26T01:43:03.785Z,98926.22
2019-04-26T01:45:48.560Z,98946.38
2019-04-26T01:48:37.791Z,98971.39
2019-04-26T01:51:06.945Z,98986.29
2019-04-26T01:53:35.886Z,98986.31
2019-04-26T01:56:04.681Z,98981.50
2019-04-26T01:58:33.148Z,98979.74
2019-04-26T02:01:13.171Z,98977.97
2019-04-26T02:03:41.583Z,98979.73
2019-04-26T02:06:10.146Z,98992.02
2019-04-26T02:08:39.135Z,98985.87
2019-04-26T02:11:07.859Z,98994.22
2019-04-26T02:13:36.266Z,98996.39
2019-04-26T02:16:05.017Z,98995.53
2019-04-26T02:18:33.654Z,98995.97
2019-04-26T02:21:09.238Z,98996.83
2019-04-26T02:23:42.408Z,99013.04
2019-04-26T02:26:30.350Z,98994.20
2019-04-26T02:28:58.817Z,98995.52
2019-04-26T02:31:29.318Z,98994.19
2019-04-26T02:33:58.814Z,98991.98
2019-04-26T02:36:48.383Z,98998.53
2019-04-26T02:39:01.252Z,98987.13
2019-04-26T02:41:32.051Z,98987.16
2019-04-26T02:44:03.809Z,99005.14
2019-04-26T02:46:48.830Z,99007.31
2019-04-26T02:49:19.897Z,98987.16
2019-04-26T02:52:06.231Z,98967.39
2019-04-26T02:54:46.588Z,98970.91
2019-04-26T02:57:18.038Z,98969.59
2019-04-26T02:59:48.778Z,98968.27
2019-04-26T03:02:22.134Z,98960.33
2019-04-26T03:04:53.317Z,98962.49
2019-04-26T03:07:32.148Z,98983.12
2019-04-26T03:10:01.222Z,98982.25
2019-04-26T03:12:34.418Z,99004.62
2019-04-26T03:15:13.990Z,98995.87
2019-04-26T03:17:50.029Z,98987.51
2019-04-26T03:20:23.119Z,98996.30
2019-04-26T03:23:03.123Z,99009.88
2019-04-26T03:25:43.607Z,99015.14
2019-04-26T03:28:15.088Z,99018.67
2019-04-26T03:31:18.529Z,99016.92
2019-04-26T03:33:59.293Z,99013.41
2019-04-26T03:36:40.642Z,99020.02
2019-04-26T03:39:18.235Z,99015.64
2019-04-26T03:42:00.123Z,99012.55
2019-04-26T03:44:41.141Z,99012.13
2019-04-26T03:47:13.376Z,99019.16
2019-04-26T03:49:54.536Z,99010.41
2019-04-26T03:52:44.142Z,99006.45
2019-04-26T03:55:29.585Z,98995.94
2019-04-26T03:58:05.499Z,99003.40
2019-04-26T04:00:45.183Z,99004.69
2019-04-26T04:03:27.489Z,99006.86
2019-04-26T04:05:59.954Z,99005.12
2019-04-26T04:08:49.277Z,99016.95
2019-04-26T04:11:23.533Z,99031.45
2019-04-26T04:14:04.081Z,99045.05
2019-04-26T04:16:49.447Z,99023.13
2019-04-26T04:19:59.148Z,99038.91
2019-04-26T04:22:33.421Z,99047.23
2019-04-26T04:25:07.568Z,99047.23
2019-04-26T04:27:51.703Z,99045.03
2019-04-26T04:30:47.717Z,99028.83
2019-04-26T04:33:22.831Z,99023.11
2019-04-26T04:35:54.289Z,99005.08
2019-04-26T04:38:46.398Z,99008.14
2019-04-26T04:41:23.291Z,99033.15
2019-04-26T04:44:32.749Z,99043.64
2019-04-26T04:47:23.528Z,99042.33
2019-04-26T04:49:58.972Z,99055.91
2019-04-26T04:52:36.014Z,99062.03
2019-04-26T04:55:28.538Z,99065.52
2019-04-26T04:58:08.686Z,99067.67
2019-04-26T05:01:21.353Z,99043.07
2019-04-26T05:04:06.553Z,99057.53
2019-04-26T05:07:05.171Z,99064.14
2019-04-26T05:09:45.337Z,99058.88
2019-04-26T05:12:25.845Z,99062.83
2019-04-26T05:15:07.441Z,99074.69
2019-04-26T05:17:56.871Z,99069.45
2019-04-26T05:20:37.275Z,99058.45
2019-04-26T05:23:23.072Z,99065.94
2019-04-26T05:25:59.045Z,99071.25
2019-04-26T05:31:22.318Z,99093.67
2019-04-26T05:34:03.786Z,99097.19
2019-04-26T05:36:41.355Z,99081.42
2019-04-26T05:39:24.958Z,99091.94
2019-04-26T05:42:22.376Z,99090.66
2019-04-26T05:45:07.546Z,99080.09
2019-04-26T05:47:46.456Z,99052.46
2019-04-26T05:50:58.989Z,99054.66
2019-04-26T05:53:59.164Z,99059.02
2019-04-26T05:56:47.405Z,99059.44
2019-04-26T05:59:31.699Z,99075.19
2019-04-26T06:02:14.017Z,99090.53
2019-04-26T06:05:06.746Z,99088.36
2019-04-26T06:07:54.667Z,99087.90
2019-04-26T06:10:28.088Z,99106.34
2019-04-26T06:13:19.957Z,99108.08
2019-04-26T06:16:17.235Z,99118.56
2019-04-26T06:19:06.057Z,99142.28
2019-04-26T06:21:42.837Z,99147.59
2019-04-26T06:24:19.974Z,99141.47
2019-04-26T06:27:14.349Z,99146.28
2019-04-26T06:29:58.659Z,99167.81
2019-04-26T06:32:39.502Z,99173.08
2019-04-26T06:35:19.868Z,99181.41
2019-04-26T06:38:17.602Z,99198.98
2019-04-26T06:41:05.262Z,99204.70
2019-04-26T06:43:41.017Z,99202.05
2019-04-26T06:46:28.940Z,99207.33
2019-04-26T06:49:14.279Z,99229.27
2019-04-26T06:52:16.185Z,99239.80
2019-04-26T06:54:57.689Z,99244.62
2019-04-26T06:58:07.344Z,99245.91
2019-04-26T07:01:11.391Z,99231.00
2019-04-26T07:04:05.645Z,99217.42
2019-04-26T07:06:53.670Z,99216.97
2019-04-26T07:09:25.104Z,99230.58
2019-04-26T07:12:25.525Z,99224.87
2019-04-26T07:15:28.425Z,99227.07
2019-04-26T07:18:16.283Z,99221.38
2019-04-26T07:20:52.667Z,99210.41
2019-04-26T07:23:40.774Z,99202.51
2019-04-26T07:26:45.797Z,99207.78
2019-04-26T07:29:41.650Z,99219.18
2019-04-26T07:32:18.971Z,99226.20
2019-04-26T07:35:02.621Z,99238.05
2019-04-26T07:38:09.248Z,99232.77
2019-04-26T07:40:57.505Z,99232.77
2019-04-26T07:43:54.652Z,99232.73
2019-04-26T07:46:35.219Z,99227.47
2019-04-26T07:49:23.154Z,99234.44
2019-04-26T07:52:27.999Z,99231.34
2019-04-26T07:55:19.109Z,99243.20
2019-04-26T07:58:23.782Z,99249.37
2019-04-26T08:00:59.468Z,99237.50
2019-04-26T08:03:32.575Z,99237.50
2019-04-26T08:06:21.717Z,99241.02
2019-04-26T08:09:05.959Z,99238.37
2019-04-26T08:11:40.154Z,99241.45
2019-04-26T08:14:14.771Z,99238.37
2019-04-26T08:17:05.308Z,99245.84
2019-04-26T08:19:40.185Z,99247.16
2019-04-26T08:22:20.385Z,99238.81
2019-04-26T08:24:45.710Z,99231.36
2019-04-26T08:27:23.328Z,99237.91
2019-04-26T08:29:50.703Z,99244.93
2019-04-26T08:32:28.238Z,99248.83
2019-04-26T08:34:58.054Z,99244.79
2019-04-26T08:37:36.515Z,99249.17
2019-04-26T08:40:05.741Z,99241.24
2019-04-26T08:42:45.848Z,99241.64
2019-04-26T08:45:21.809Z,99248.13
2019-04-26T08:47:58.097Z,99249.77
2019-04-26T08:50:29.614Z,99253.04
2019-04-26T08:53:01.063Z,99261.75
2019-04-26T08:55:31.747Z,99261.72
2019-04-26T08:58:03.215Z,99263.45
2019-04-26T09:00:42.193Z,99260.70
2019-04-26T09:03:32.328Z,99263.20
2019-04-26T09:06:20.954Z,99257.11
2019-04-26T09:08:51.576Z,99258.79
2019-04-26T09:11:25.773Z,99276.80
2019-04-26T09:13:53.973Z,99285.66
2019-04-26T09:16:26.157Z,99294.55
2019-04-26T09:18:59.372Z,99288.05
2019-04-26T09:21:28.935Z,99288.55
2019-04-26T09:24:14.425Z,99286.81
2019-04-26T09:26:48.504Z,99290.02
2019-04-26T09:29:30.400Z,99285.19
2019-04-26T09:31:59.249Z,99286.91
2019-04-26T09:34:35.039Z,99282.49
2019-04-26T09:37:03.451Z,99283.36
2019-04-26T09:39:31.847Z,99289.02
2019-04-26T09:42:05.902Z,99288.92
2019-04-26T09:44:41.456Z,99292.23
2019-04-26T09:47:11.769Z,99292.36
2019-04-26T09:49:54.117Z,99291.87
2019-04-26T09:52:26.935Z,99288.48
2019-04-26T09:54:55.347Z,99283.23
2019-04-26T09:57:23.748Z,99284.55
2019-04-26T09:59:52.179Z,99282.81
2019-04-26T10:02:20.657Z,99281.80
2019-04-26T10:04:49.563Z,99285.94
2019-04-26T10:07:17.984Z,99276.42
2019-04-26T10:09:46.404Z,99271.91
2019-04-26T10:12:16.685Z,99266.33
2019-04-26T10:14:55.462Z,99259.89
2019-04-26T10:17:25.538Z,99260.82
2019-04-26T10:19:55.006Z,99259.72
2019-04-26T10:22:25.085Z,99273.48
2019-04-26T10:24:53.509Z,99278.78
2019-04-26T10:27:21.914Z,99280.08
2019-04-26T10:29:50.385Z,99284.80
2019-04-26T10:32:21.788Z,99294.14
2019-04-26T10:34:49.021Z,99299.95
2019-04-26T10:37:17.386Z,99297.63
2019-04-26T10:39:45.811Z,99300.15
2019-04-26T10:42:15.395Z,99298.07
2019-04-26T10:44:43.811Z,99301.59
2019-04-26T10:47:12.387Z,99302.47
2019-04-26T10:49:43.744Z,99304.32
2019-04-26T10:52:15.772Z,99302.28
2019-04-26T10:55:03.444Z,99299.63
2019-04-26T10:57:39.203Z,99293.86
2019-04-26T11:00:10.198Z,99293.56
2019-04-26T11:02:38.613Z,99295.91
2019-04-26T11:05:07.751Z,99302.02
2019-04-26T11:07:36.175Z,99297.88
2019-04-26T11:10:06.395Z,99294.09
2019-04-26T11:12:34.794Z,99294.67
2019-04-26T11:15:06.043Z,99292.62
2019-04-26T11:17:33.422Z,99301.38
2019-04-26T11:20:01.829Z,99296.36
2019-04-26T11:22:33.475Z,99296.96
2019-04-26T11:25:00.371Z,99287.36
2019-04-26T11:27:29.439Z,99281.84
2019-04-26T11:29:59.671Z,99267.05
2019-04-26T11:32:28.060Z,99272.01
2019-04-26T11:34:58.750Z,99276.95
2019-04-26T11:37:26.715Z,99267.75
2019-04-26T11:39:55.115Z,99252.81
2019-04-26T11:42:23.527Z,99244.80
2019-04-26T11:44:52.240Z,99248.77
2019-04-26T11:47:20.643Z,99253.66
2019-04-26T11:49:50.090Z,99263.60
2019-04-26T11:52:18.714Z,99271.18
2019-04-26T11:54:47.122Z,99258.10
2019-04-26T11:57:15.511Z,99260.68
2019-04-26T11:59:43.941Z,99267.38
2019-04-26T12:02:15.896Z,99272.35
2019-04-26T12:04:49.616Z,99273.36
2019-04-26T12:07:18.887Z,99261.54
2019-04-26T12:09:48.924Z,99262.61
2019-04-26T12:12:17.396Z,99270.97
2019-04-26T12:14:45.819Z,99270.30
2019-04-26T12:17:14.227Z,99271.32
2019-04-26T12:19:42.611Z,99274.36
2019-04-26T12:22:11.215Z,99278.39
2019-04-26T12:24:39.631Z,99279.57
2019-04-26T12:27:10.223Z,99278.31
2019-04-26T12:29:38.593Z,99275.62
2019-04-26T12:32:06.980Z,99276.26
2019-04-26T12:34:35.359Z,99279.56
2019-04-26T12:37:03.942Z,99272.41
2019-04-26T12:39:36.475Z,99271.00
2019-04-26T12:42:02.724Z,99273.67
2019-04-26T12:44:36.831Z,99271.09
2019-04-26T12:47:05.189Z,99267.98
2019-04-26T12:49:35.398Z,99261.75
2019-04-26T12:52:04.137Z,99260.09
2019-04-26T12:54:32.540Z,99257.61
2019-04-26T12:57:01.661Z,99261.10
2019-04-26T12:59:43.318Z,99263.38
2019-04-26T13:02:05.814Z,99259.67
2019-04-26T13:04:36.335Z,99255.88
2019-04-26T13:07:22.735Z,99251.98
2019-04-26T13:09:42.109Z,99256.02
2019-04-26T13:12:12.141Z,99252.31
2019-04-26T13:14:56.924Z,99256.77
2019-04-26T13:17:35.782Z,99258.90
2019-04-26T13:20:03.506Z,99261.01
2019-04-26T13:22:32.200Z,99258.48
2019-04-26T13:25:01.674Z,99259.64
2019-04-26T13:27:30.105Z,99257.59
2019-04-26T13:30:02.352Z,99264.36
2019-04-26T13:32:28.639Z,99268.98
2019-04-26T13:34:58.005Z,99263.15
2019-04-26T13:37:26.413Z,99264.79
2019-04-26T13:39:55.331Z,99259.64
2019-04-26T13:42:25.091Z,99261.15
2019-04-26T13:44:57.845Z,99264.48
2019-04-26T13:47:34.013Z,99255.95
2019-04-26T13:50:04.052Z,99262.98
2019-04-26T13:52:32.452Z,99259.27
2019-04-26T13:55:01.150Z,99261.14
2019-04-26T13:57:29.554Z,99254.80
2019-04-26T13:59:57.957Z,99253.66
2019-04-26T14:02:26.386Z,99248.86
2019-04-26T14:04:54.786Z,99251.15
2019-04-26T14:07:24.437Z,99243.33
2019-04-26T14:09:53.778Z,99240.36
2019-04-26T14:12:22.170Z,99245.61
2019-04-26T14:14:50.583Z,99246.77
2019-04-26T14:17:19.100Z,99246.72
2019-04-26T14:19:49.615Z,99246.42
2019-04-26T14:22:19.273Z,99244.21
2019-04-26T14:24:49.358Z,99239.44
2019-04-26T14:27:19.428Z,99248.53
2019-04-26T14:29:47.833Z,99244.19
2019-04-26T14:32:16.244Z,99242.59
2019-04-26T14:34:45.288Z,99241.30
2019-04-26T14:37:15.590Z,99234.66
2019-04-26T14:39:50.719Z,99233.03
2019-04-26T14:42:13.980Z,99242.27
2019-04-26T14:44:49.317Z,99236.31
2019-04-26T14:47:14.125Z,99227.66
2019-04-26T14:49:43.103Z,99231.52
2019-04-26T14:52:11.621Z,99235.72
2019-04-26T14:54:41.537Z,99235.56
2019-04-26T14:57:16.986Z,99230.63
2019-04-26T14:59:46.962Z,99221.11
2019-04-26T15:02:33.135Z,99219.88
2019-04-26T15:05:22.246Z,99221.13
2019-04-26T15:07:52.021Z,99219.91
2019-04-26T15:10:22.492Z,99226.48
2019-04-26T15:12:58.544Z,99222.20
2019-04-26T15:15:21.438Z,99217.97
2019-04-26T15:17:55.130Z,99223.97
2019-04-26T15:20:20.819Z,99225.96
2019-04-26T15:22:50.565Z,99229.48
2019-04-26T15:25:18.950Z,99225.79
2019-04-26T15:27:47.987Z,99226.06
2019-04-26T15:30:16.508Z,99224.36
2019-04-26T15:32:44.902Z,99231.61
2019-04-26T15:35:16.132Z,99231.98
2019-04-26T15:37:43.447Z,99234.98
2019-04-26T15:40:13.616Z,99232.44
2019-04-26T15:42:58.727Z,99236.11
2019-04-26T15:45:38.731Z,99236.52
2019-04-26T15:48:09.961Z,99236.67
2019-04-26T15:50:49.488Z,99236.30
2019-04-26T15:53:14.774Z,99229.47
2019-04-26T15:55:43.648Z,99226.40
2019-04-26T15:58:12.082Z,99222.98
2019-04-26T16:00:40.552Z,99227.16
2019-04-26T16:03:08.942Z,99221.30
2019-04-26T16:05:37.356Z,99228.86
2019-04-26T16:08:05.822Z,99226.20
2019-04-26T16:10:38.208Z,99236.95
2019-04-26T16:13:18.122Z,99237.52
2019-04-26T16:15:34.585Z,99239.73
2019-04-26T16:18:04.230Z,99237.31
2019-04-26T16:20:37.587Z,99242.88
2019-04-26T16:23:05.793Z,99245.13
2019-04-26T16:25:34.357Z,99243.67
2019-04-26T16:28:22.735Z,99239.86
2019-04-26T16:30:55.648Z,99234.84
2019-04-26T16:33:28.437Z,99237.83
2019-04-26T16:35:57.404Z,99233.83
2019-04-26T16:38:33.728Z,99230.81
2019-04-26T16:41:03.272Z,99237.34
2019-04-26T16:43:37.800Z,99235.91
2019-04-26T16:46:02.353Z,99238.14
2019-04-26T16:48:30.886Z,99240.05
2019-04-26T16:51:00.902Z,99240.81
2019-04-26T16:53:43.669Z,99242.84
2019-04-26T16:55:59.545Z,99244.93
2019-04-26T16:58:34.803Z,99245.39
2019-04-26T17:00:58.354Z,99243.25
2019-04-26T17:03:26.963Z,99250.62
2019-04-26T17:06:05.248Z,99250.38
2019-04-26T17:08:27.380Z,99248.28
2019-04-26T17:10:56.661Z,99255.20
2019-04-26T17:13:30.059Z,99252.22
2019-04-26T17:15:58.174Z,99253.59
2019-04-26T17:18:27.116Z,99251.48
2019-04-26T17:20:55.627Z,99255.63
2019-04-26T17:23:33.314Z,99256.11
2019-04-26T17:26:19.390Z,99265.20
2019-04-26T17:28:47.805Z,99263.02
2019-04-26T17:31:16.194Z,99268.92
2019-04-26T17:33:45.612Z,99271.66
2019-04-26T17:36:15.671Z,99268.66
2019-04-26T17:38:44.297Z,99263.34
2019-04-26T17:41:13.834Z,99263.68
2019-04-26T17:43:47.518Z,99265.27
2019-04-26T17:46:14.536Z,99270.85
2019-04-26T17:48:44.858Z,99272.52
2019-04-26T17:51:18.943Z,99273.70
2019-04-26T17:53:44.040Z,99275.91
2019-04-26T17:56:13.656Z,99277.25
2019-04-26T17:58:51.198Z,99277.54
2019-04-26T18:01:29.314Z,99277.05
2019-04-26T18:03:50.800Z,99281.42
2019-04-26T18:06:14.120Z,99282.04
2019-04-26T18:08:51.913Z,99281.36
2019-04-26T18:11:19.661Z,99284.08
2019-04-26T18:13:43.248Z,99285.41
2019-04-26T18:16:11.623Z,99282.41
2019-04-26T18:18:53.663Z,99285.07
2019-04-26T18:21:37.557Z,99287.79
2019-04-26T18:24:06.284Z,99286.09
2019-04-26T18:26:34.809Z,99290.58
2019-04-26T18:29:03.829Z,99285.36
2019-04-26T18:31:33.673Z,99291.66
2019-04-26T18:34:04.006Z,99285.20
2019-04-26T18:36:33.296Z,99294.31
2019-04-26T18:39:03.704Z,99294.94
2019-04-26T18:41:33.835Z,99295.09
2019-04-26T18:44:03.079Z,99301.11
2019-04-26T18:46:35.816Z,99304.44
2019-04-26T18:49:04.447Z,99308.52
2019-04-26T18:51:33.401Z,99312.67
2019-04-26T18:54:18.604Z,99313.44
2019-04-26T18:56:51.505Z,99317.30
2019-04-26T18:59:19.897Z,99317.03
2019-04-26T19:01:49.109Z,99321.28
2019-04-26T19:04:17.511Z,99326.77
2019-04-26T19:06:45.897Z,99330.97
2019-04-26T19:09:15.613Z,99333.83
2019-04-26T19:11:48.618Z,99344.56
2019-04-26T19:14:34.222Z,99344.71
2019-04-26T19:17:11.861Z,99342.27
2019-04-26T19:19:42.387Z,99354.34
2019-04-26T19:22:15.885Z,99358.52
2019-04-26T19:24:42.305Z,99359.59
2019-04-26T19:27:12.356Z,99367.72
2019-04-26T19:29:41.087Z,99358.23
2019-04-26T19:32:11.908Z,99364.09
2019-04-26T19:34:42.134Z,99367.27
2019-04-26T19:37:10.688Z,99366.91
2019-04-26T19:39:39.201Z,99375.79
2019-04-26T19:42:07.898Z,99375.89
2019-04-26T19:44:36.364Z,99386.55
2019-04-26T19:47:22.676Z,99383.55
2019-04-26T19:50:11.796Z,99389.33
2019-04-26T19:52:48.395Z,99391.14
2019-04-26T19:55:24.209Z,99397.75
2019-04-26T19:58:09.816Z,99402.59
2019-04-26T20:00:38.601Z,99398.63
2019-04-26T20:03:08.569Z,99401.23
2019-04-26T20:05:40.437Z,99409.57
2019-04-26T20:08:06.855Z,99409.57
2019-04-26T20:10:40.483Z,99410.89
2019-04-26T20:13:07.585Z,99404.33
2019-04-26T20:15:35.747Z,99403.02
2019-04-26T20:18:04.346Z,99405.28
2019-04-26T20:20:36.189Z,99414.11
2019-04-26T20:23:05.905Z,99413.71
2019-04-26T20:25:33.133Z,99412.82
2019-04-26T20:28:03.182Z,99408.00
2019-04-26T20:30:51.499Z,99414.56
2019-04-26T20:33:20.155Z,99411.93
2019-04-26T20:35:48.559Z,99402.72
2019-04-26T20:38:16.953Z,99404.07
2019-04-26T20:40:47.399Z,99404.95
2019-04-26T20:43:25.820Z,99406.27
2019-04-26T20:46:08.073Z,99408.02
2019-04-26T20:48:16.140Z,99409.34
2019-04-26T20:50:44.533Z,99407.59
2019-04-26T20:53:12.934Z,99405.38
2019-04-26T20:55:42.741Z,99414.61
2019-04-26T20:58:11.798Z,99415.08
2019-04-26T21:00:53.480Z,99406.72
2019-04-26T21:03:22.813Z,99412.00
2019-04-26T21:05:46.191Z,99411.95
2019-04-26T21:08:12.351Z,99408.89
2019-04-26T21:10:41.789Z,99408.88
2019-04-26T21:13:12.081Z,99411.52
2019-04-26T21:15:53.510Z,99410.19
2019-04-26T21:18:12.359Z,99405.80
2019-04-26T21:20:42.502Z,99406.67
2019-04-26T21:23:13.267Z,99411.50
2019-04-26T21:25:52.411Z,99398.76
2019-04-26T21:28:38.189Z,99405.33
2019-04-26T21:31:08.935Z,99407.51
2019-04-26T21:33:39.180Z,99404.86
2019-04-26T21:36:13.646Z,99404.44
2019-04-26T21:38:43.959Z,99406.65
2019-04-26T21:41:17.841Z,99409.31
2019-04-26T21:43:46.250Z,99410.62
2019-04-26T21:46:19.290Z,99410.61
2019-04-26T21:48:44.912Z,99406.68
2019-04-26T21:51:16.043Z,99413.69
2019-04-26T21:53:45.178Z,99411.89
2019-04-26T21:56:14.806Z,99416.22
2019-04-26T21:58:43.640Z,99415.73
2019-04-26T22:01:19.035Z,99420.50
2019-04-26T22:03:53.675Z,99419.15
2019-04-26T22:06:19.811Z,99424.36
2019-04-26T22:08:55.671Z,99414.70
2019-04-26T22:11:23.415Z,99419.02
2019-04-26T22:13:59.843Z,99422.06
2019-04-26T22:16:38.119Z,99420.69
2019-04-26T22:19:08.196Z,99414.52
2019-04-26T22:21:38.226Z,99417.56
2019-04-26T22:24:08.342Z,99417.51
2019-04-26T22:26:38.004Z,99425.37
2019-04-26T22:29:08.182Z,99422.63
2019-04-26T22:31:37.926Z,99429.13
2019-04-26T22:34:08.899Z,99433.45
2019-04-26T22:36:37.364Z,99425.97
2019-04-26T22:39:11.328Z,99427.63
2019-04-26T22:41:39.715Z,99422.75
2019-04-26T22:44:09.747Z,99430.09
2019-04-26T22:46:58.770Z,99440.11
2019-04-26T22:49:26.054Z,99439.63
2019-04-26T22:51:54.432Z,99439.25
2019-04-26T22:54:23.062Z,99444.13
2019-04-26T22:56:53.795Z,99437.14
2019-04-26T22:59:22.964Z,99442.80
2019-04-26T23:01:53.578Z,99438.81
2019-04-26T23:04:26.248Z,99446.17
2019-04-26T23:06:56.218Z,99450.87
2019-04-26T23:09:23.369Z,99441.98
2019-04-26T23:11:53.869Z,99441.42
2019-04-26T23:14:23.883Z,99445.26
2019-04-26T23:17:05.047Z,99445.16
2019-04-26T23:19:34.665Z,99445.02
2019-04-26T23:22:04.035Z,99452.35
2019-04-26T23:24:32.537Z,99446.59
2019-04-26T23:27:00.912Z,99442.16
2019-04-26T23:29:29.607Z,99453.50
2019-04-26T23:31:58.016Z,99450.83
2019-04-26T23:34:26.401Z,99448.14
2019-04-26T23:36:54.791Z,99446.23
2019-04-26T23:39:24.640Z,99446.08
2019-04-26T23:41:53.973Z,99445.56
2019-04-26T23:44:23.202Z,99440.69
2019-04-26T23:46:56.610Z,99444.95
2019-04-26T23:49:25.026Z,99441.44
2019-04-26T23:51:53.366Z,99439.66
2019-04-26T23:54:23.736Z,99436.59
2019-04-26T23:56:55.709Z,99435.23
2019-04-26T23:59:22.332Z,99430.77
